sensor_id;sensor_type;location;lat;lon;timestamp;pressure;altitude;pressure_sealevel;temperature;humidity
33189;BME280;52601;53.070;10.600;2023-01-04T03:40:40;101362.16;;;6.71;100.00
33189;BME280;52601;53.070;10.600;2023-01-04T03:44:30;101317.31;;;6.57;100.00
33189;BME280;52601;53.070;10.600;2023-01-04T05:07:46;101214.31;;;7.13;100.00
33189;BME280;52601;53.070;10.600;2023-01-04T05:10:36;101095.31;;;6.44;100.00
33189;BME280;52601;53.070;10.600;2023-01-04T05:13:22;101133.66;;;6.73;100.00
33189;BME280;52601;53.070;10.600;2023-01-04T05:16:11;101125.66;;;6.80;100.00
33189;BME280;52601;53.070;10.600;2023-01-04T05:18:59;101106.63;;;6.77;100.00
33189;BME280;52601;53.070;10.600;2023-01-04T05:21:44;101089.25;;;6.77;100.00
33189;BME280;52601;53.070;10.600;2023-01-04T05:24:30;101113.00;;;6.99;100.00
33189;BME280;52601;53.070;10.600;2023-01-04T05:27:15;101082.41;;;6.73;100.00
33189;BME280;52601;53.070;10.600;2023-01-04T05:30:02;101109.47;;;7.00;100.00
33189;BME280;52601;53.070;10.600;2023-01-04T05:33:06;101084.44;;;6.94;100.00
33189;BME280;52601;53.070;10.600;2023-01-04T05:35:52;101101.88;;;6.92;100.00
33189;BME280;52601;53.070;10.600;2023-01-04T05:38:38;101095.63;;;6.98;100.00
33189;BME280;52601;53.070;10.600;2023-01-04T05:41:24;101089.44;;;7.02;100.00
33189;BME280;52601;53.070;10.600;2023-01-04T05:44:28;101039.59;;;6.83;100.00
33189;BME280;52601;53.070;10.600;2023-01-04T05:47:14;101053.28;;;6.90;100.00
33189;BME280;52601;53.070;10.600;2023-01-04T05:49:59;101033.22;;;6.93;100.00
33189;BME280;52601;53.070;10.600;2023-01-04T05:52:45;101059.53;;;7.15;100.00
33189;BME280;52601;53.070;10.600;2023-01-04T05:55:31;101045.50;;;7.19;100.00
33189;BME280;52601;53.070;10.600;2023-01-04T05:58:17;101051.84;;;7.11;100.00
33189;BME280;52601;53.070;10.600;2023-01-04T06:01:02;101031.72;;;7.14;100.00
33189;BME280;52601;53.070;10.600;2023-01-04T06:03:48;100962.03;;;6.91;100.00
33189;BME280;52601;53.070;10.600;2023-01-04T06:06:33;101004.72;;;7.17;100.00
33189;BME280;52601;53.070;10.600;2023-01-04T06:09:19;100998.63;;;7.18;100.00
33189;BME280;52601;53.070;10.600;2023-01-04T06:12:04;100996.72;;;7.23;100.00
33189;BME280;52601;53.070;10.600;2023-01-04T06:14:50;100999.44;;;7.20;100.00
33189;BME280;52601;53.070;10.600;2023-01-04T06:17:35;100975.66;;;7.29;100.00
33189;BME280;52601;53.070;10.600;2023-01-04T06:20:21;100967.84;;;7.29;100.00
33189;BME280;52601;53.070;10.600;2023-01-04T06:23:06;100980.19;;;7.24;100.00
33189;BME280;52601;53.070;10.600;2023-01-04T06:25:53;100971.88;;;7.39;100.00
33189;BME280;52601;53.070;10.600;2023-01-04T06:28:38;100967.66;;;7.35;100.00
33189;BME280;52601;53.070;10.600;2023-01-04T06:31:25;100942.00;;;7.21;100.00
33189;BME280;52601;53.070;10.600;2023-01-04T06:34:12;100942.47;;;7.34;100.00
33189;BME280;52601;53.070;10.600;2023-01-04T06:36:58;100944.84;;;7.41;100.00
33189;BME280;52601;53.070;10.600;2023-01-04T06:39:44;100957.72;;;7.46;100.00
33189;BME280;52601;53.070;10.600;2023-01-04T06:42:29;100947.28;;;7.47;100.00
33189;BME280;52601;53.070;10.600;2023-01-04T06:45:30;100931.75;;;7.43;100.00
33189;BME280;52601;53.070;10.600;2023-01-04T06:48:15;100931.66;;;7.46;100.00
33189;BME280;52601;53.070;10.600;2023-01-04T06:51:02;100930.50;;;7.54;100.00
33189;BME280;52601;53.070;10.600;2023-01-04T06:53:48;100939.19;;;7.55;100.00
33189;BME280;52601;53.070;10.600;2023-01-04T06:56:33;100924.41;;;7.54;100.00
33189;BME280;52601;53.070;10.600;2023-01-04T06:59:19;100922.59;;;7.57;100.00
33189;BME280;52601;53.070;10.600;2023-01-04T07:02:04;100912.97;;;7.58;100.00
33189;BME280;52601;53.070;10.600;2023-01-04T07:04:50;100902.66;;;7.55;100.00
33189;BME280;52601;53.070;10.600;2023-01-04T07:07:35;100912.91;;;7.61;100.00
33189;BME280;52601;53.070;10.600;2023-01-04T07:10:21;100909.38;;;7.62;100.00
33189;BME280;52601;53.070;10.600;2023-01-04T07:13:07;100916.97;;;7.69;100.00
33189;BME280;52601;53.070;10.600;2023-01-04T07:15:53;100915.72;;;7.81;100.00
33189;BME280;52601;53.070;10.600;2023-01-04T07:18:38;100883.28;;;7.62;100.00
33189;BME280;52601;53.070;10.600;2023-01-04T07:21:24;100898.59;;;7.72;100.00
33189;BME280;52601;53.070;10.600;2023-01-04T07:24:11;100908.09;;;7.73;100.00
33189;BME280;52601;53.070;10.600;2023-01-04T07:27:00;100887.16;;;7.76;100.00
33189;BME280;52601;53.070;10.600;2023-01-04T07:29:45;100867.47;;;7.66;100.00
33189;BME280;52601;53.070;10.600;2023-01-04T07:32:31;100871.00;;;7.65;100.00
33189;BME280;52601;53.070;10.600;2023-01-04T07:35:16;100872.16;;;7.81;100.00
33189;BME280;52601;53.070;10.600;2023-01-04T07:38:02;100874.56;;;7.88;100.00
33189;BME280;52601;53.070;10.600;2023-01-04T07:40:52;100859.88;;;7.85;100.00
33189;BME280;52601;53.070;10.600;2023-01-04T07:43:41;100847.03;;;7.79;100.00
33189;BME280;52601;53.070;10.600;2023-01-04T07:46:27;100873.31;;;7.99;100.00
33189;BME280;52601;53.070;10.600;2023-01-04T07:49:14;100873.19;;;8.02;100.00
33189;BME280;52601;53.070;10.600;2023-01-04T07:52:02;100855.03;;;7.99;100.00
33189;BME280;52601;53.070;10.600;2023-01-04T07:54:48;100846.34;;;7.99;100.00
33189;BME280;52601;53.070;10.600;2023-01-04T07:57:33;100822.13;;;7.94;100.00
33189;BME280;52601;53.070;10.600;2023-01-04T08:00:19;100859.03;;;8.09;100.00
33189;BME280;52601;53.070;10.600;2023-01-04T08:03:04;100855.56;;;8.09;100.00
33189;BME280;52601;53.070;10.600;2023-01-04T08:05:50;100827.94;;;8.02;100.00
33189;BME280;52601;53.070;10.600;2023-01-04T08:08:36;100821.47;;;8.12;100.00
33189;BME280;52601;53.070;10.600;2023-01-04T08:11:21;100845.50;;;8.21;100.00
33189;BME280;52601;53.070;10.600;2023-01-04T08:14:08;100836.69;;;8.25;100.00
33189;BME280;52601;53.070;10.600;2023-01-04T08:16:54;100827.00;;;8.29;100.00
33189;BME280;52601;53.070;10.600;2023-01-04T08:19:39;100815.69;;;8.28;100.00
33189;BME280;52601;53.070;10.600;2023-01-04T08:22:25;100838.97;;;8.34;100.00
33189;BME280;52601;53.070;10.600;2023-01-04T08:25:10;100812.72;;;8.37;100.00
33189;BME280;52601;53.070;10.600;2023-01-04T08:27:56;100811.53;;;8.46;100.00
33189;BME280;52601;53.070;10.600;2023-01-04T08:30:41;100826.91;;;8.53;100.00
33189;BME280;52601;53.070;10.600;2023-01-04T08:33:27;100806.31;;;8.46;100.00
33189;BME280;52601;53.070;10.600;2023-01-04T08:39:11;100821.34;;;8.62;100.00
33189;BME280;52601;53.070;10.600;2023-01-04T08:41:57;100812.72;;;8.60;100.00
33189;BME280;52601;53.070;10.600;2023-01-04T08:44:55;100826.09;;;8.75;100.00
33189;BME280;52601;53.070;10.600;2023-01-04T08:47:44;100833.94;;;8.75;100.00
33189;BME280;52601;53.070;10.600;2023-01-04T08:50:29;100834.44;;;8.84;100.00
33189;BME280;52601;53.070;10.600;2023-01-04T08:53:15;100804.16;;;8.79;100.00
33189;BME280;52601;53.070;10.600;2023-01-04T08:56:01;100808.59;;;8.77;100.00
33189;BME280;52601;53.070;10.600;2023-01-04T08:58:46;100787.38;;;8.84;100.00
33189;BME280;52601;53.070;10.600;2023-01-04T09:01:33;100804.31;;;8.96;100.00
33189;BME280;52601;53.070;10.600;2023-01-04T09:04:19;100777.56;;;8.89;100.00
33189;BME280;52601;53.070;10.600;2023-01-04T09:07:05;100758.28;;;8.92;100.00
33189;BME280;52601;53.070;10.600;2023-01-04T09:09:50;100752.09;;;8.94;100.00
33189;BME280;52601;53.070;10.600;2023-01-04T09:12:36;100760.00;;;9.13;100.00
33189;BME280;52601;53.070;10.600;2023-01-04T09:15:22;100765.84;;;9.19;100.00
33189;BME280;52601;53.070;10.600;2023-01-04T09:18:08;100760.94;;;9.12;100.00
33189;BME280;52601;53.070;10.600;2023-01-04T09:21:19;100765.53;;;9.27;100.00
33189;BME280;52601;53.070;10.600;2023-01-04T09:24:04;100768.28;;;9.24;100.00
33189;BME280;52601;53.070;10.600;2023-01-04T09:26:50;100741.19;;;9.25;100.00
33189;BME280;52601;53.070;10.600;2023-01-04T09:29:36;100745.38;;;9.49;100.00
33189;BME280;52601;53.070;10.600;2023-01-04T09:32:21;100747.78;;;9.74;100.00
33189;BME280;52601;53.070;10.600;2023-01-04T09:35:07;100759.56;;;9.84;100.00
33189;BME280;52601;53.070;10.600;2023-01-04T09:37:54;100750.22;;;9.78;100.00
33189;BME280;52601;53.070;10.600;2023-01-04T09:40:53;100760.28;;;9.87;100.00
33189;BME280;52601;53.070;10.600;2023-01-04T09:43:46;100739.47;;;9.84;100.00
33189;BME280;52601;53.070;10.600;2023-01-04T09:46:59;100753.63;;;9.99;100.00
33189;BME280;52601;53.070;10.600;2023-01-04T09:49:55;100755.34;;;10.00;100.00
33189;BME280;52601;53.070;10.600;2023-01-04T09:52:53;100762.97;;;10.04;100.00
33189;BME280;52601;53.070;10.600;2023-01-04T09:55:52;100696.06;;;9.60;100.00
33189;BME280;52601;53.070;10.600;2023-01-04T09:58:51;100765.16;;;10.15;100.00
33189;BME280;52601;53.070;10.600;2023-01-04T10:02:15;100761.56;;;10.17;100.00
33189;BME280;52601;53.070;10.600;2023-01-04T10:05:04;100730.69;;;10.24;100.00
33189;BME280;52601;53.070;10.600;2023-01-04T10:07:53;100738.25;;;10.30;100.00
33189;BME280;52601;53.070;10.600;2023-01-04T10:10:58;100725.44;;;10.24;100.00
33189;BME280;52601;53.070;10.600;2023-01-04T10:14:54;100741.72;;;10.30;100.00
33189;BME280;52601;53.070;10.600;2023-01-04T10:17:46;100723.44;;;10.48;100.00
33189;BME280;52601;53.070;10.600;2023-01-04T10:21:10;100701.75;;;10.44;100.00
33189;BME280;52601;53.070;10.600;2023-01-04T10:24:34;100714.50;;;10.52;100.00
33189;BME280;52601;53.070;10.600;2023-01-04T10:30:49;100701.16;;;10.56;100.00
33189;BME280;52601;53.070;10.600;2023-01-04T10:37:13;100697.63;;;10.57;100.00
33189;BME280;52601;53.070;10.600;2023-01-04T10:40:01;100682.19;;;10.51;100.00
33189;BME280;52601;53.070;10.600;2023-01-04T10:42:58;100686.28;;;10.57;100.00
33189;BME280;52601;53.070;10.600;2023-01-04T10:45:59;100687.75;;;10.62;100.00
33189;BME280;52601;53.070;10.600;2023-01-04T10:52:11;100670.25;;;10.63;100.00
33189;BME280;52601;53.070;10.600;2023-01-04T10:55:04;100672.09;;;10.61;100.00
33189;BME280;52601;53.070;10.600;2023-01-04T10:57:57;100663.78;;;10.70;100.00
33189;BME280;52601;53.070;10.600;2023-01-04T11:00:48;100655.06;;;10.69;100.00
33189;BME280;52601;53.070;10.600;2023-01-04T11:03:54;100677.72;;;10.70;100.00
33189;BME280;52601;53.070;10.600;2023-01-04T11:07:00;100664.69;;;10.69;100.00
33189;BME280;52601;53.070;10.600;2023-01-04T11:09:51;100649.81;;;10.69;100.00
33189;BME280;52601;53.070;10.600;2023-01-04T11:12:39;100648.06;;;10.70;100.00
33189;BME280;52601;53.070;10.600;2023-01-04T11:15:26;100660.44;;;10.66;100.00
33189;BME280;52601;53.070;10.600;2023-01-04T11:18:15;100658.91;;;10.62;100.00
33189;BME280;52601;53.070;10.600;2023-01-04T11:21:10;100576.00;;;10.25;100.00
33189;BME280;52601;53.070;10.600;2023-01-04T11:24:07;100587.78;;;10.34;100.00
33189;BME280;52601;53.070;10.600;2023-01-04T11:27:24;100632.53;;;10.65;100.00
33189;BME280;52601;53.070;10.600;2023-01-04T11:30:24;100645.28;;;10.73;100.00
33189;BME280;52601;53.070;10.600;2023-01-04T11:33:15;100620.59;;;10.77;100.00
33189;BME280;52601;53.070;10.600;2023-01-04T11:36:01;100627.47;;;10.79;100.00
33189;BME280;52601;53.070;10.600;2023-01-04T11:38:54;100618.56;;;10.82;100.00
33189;BME280;52601;53.070;10.600;2023-01-04T11:41:53;100607.63;;;10.91;100.00
33189;BME280;52601;53.070;10.600;2023-01-04T11:45:02;100536.75;;;10.41;100.00
33189;BME280;52601;53.070;10.600;2023-01-04T11:47:58;100543.84;;;10.56;100.00
33189;BME280;52601;53.070;10.600;2023-01-04T11:50:46;100609.03;;;10.81;100.00
33189;BME280;52601;53.070;10.600;2023-01-04T11:53:36;100620.19;;;10.84;100.00
33189;BME280;52601;53.070;10.600;2023-01-04T11:56:23;100598.22;;;10.70;100.00
33189;BME280;52601;53.070;10.600;2023-01-04T11:59:12;100615.63;;;10.88;100.00
33189;BME280;52601;53.070;10.600;2023-01-04T12:02:24;100561.59;;;10.85;100.00
33189;BME280;52601;53.070;10.600;2023-01-04T12:05:31;100578.59;;;10.94;100.00
33189;BME280;52601;53.070;10.600;2023-01-04T12:08:27;100581.63;;;11.03;100.00
33189;BME280;52601;53.070;10.600;2023-01-04T12:11:23;100567.50;;;10.89;100.00
33189;BME280;52601;53.070;10.600;2023-01-04T12:17:14;100564.56;;;10.95;100.00
33189;BME280;52601;53.070;10.600;2023-01-04T12:20:03;100581.34;;;11.08;100.00
33189;BME280;52601;53.070;10.600;2023-01-04T12:23:03;100567.78;;;11.00;100.00
33189;BME280;52601;53.070;10.600;2023-01-04T12:25:50;100560.91;;;11.14;100.00
33189;BME280;52601;53.070;10.600;2023-01-04T12:28:39;100583.16;;;11.07;100.00
33189;BME280;52601;53.070;10.600;2023-01-04T12:31:27;100574.00;;;11.14;100.00
33189;BME280;52601;53.070;10.600;2023-01-04T12:43:37;100555.47;;;11.17;100.00
33189;BME280;52601;53.070;10.600;2023-01-04T12:46:38;100542.75;;;11.10;100.00
33189;BME280;52601;53.070;10.600;2023-01-04T12:49:58;100545.69;;;11.21;100.00
33189;BME280;52601;53.070;10.600;2023-01-04T12:52:49;100534.22;;;11.06;100.00
33189;BME280;52601;53.070;10.600;2023-01-04T12:55:55;100525.09;;;11.13;100.00
33189;BME280;52601;53.070;10.600;2023-01-04T12:59:07;100547.59;;;11.17;100.00
33189;BME280;52601;53.070;10.600;2023-01-04T13:02:19;100527.88;;;11.10;100.00
33189;BME280;52601;53.070;10.600;2023-01-04T13:08:23;100533.38;;;11.21;100.00
33189;BME280;52601;53.070;10.600;2023-01-04T13:11:42;100531.78;;;11.19;100.00
33189;BME280;52601;53.070;10.600;2023-01-04T13:14:39;100501.41;;;11.15;100.00
33189;BME280;52601;53.070;10.600;2023-01-04T13:17:38;100539.06;;;11.29;100.00
33189;BME280;52601;53.070;10.600;2023-01-04T13:20:27;100504.94;;;11.29;100.00
33189;BME280;52601;53.070;10.600;2023-01-04T13:23:15;100508.50;;;11.28;100.00
33189;BME280;52601;53.070;10.600;2023-01-04T13:32:10;100502.91;;;11.19;100.00
33189;BME280;52601;53.070;10.600;2023-01-04T13:35:18;100489.63;;;11.22;100.00
33189;BME280;52601;53.070;10.600;2023-01-04T13:38:15;100503.41;;;11.25;100.00
33189;BME280;52601;53.070;10.600;2023-01-04T13:41:02;100490.22;;;11.27;100.00
33189;BME280;52601;53.070;10.600;2023-01-04T13:44:08;100487.00;;;11.22;100.00
33189;BME280;52601;53.070;10.600;2023-01-04T13:46:55;100463.97;;;11.11;100.00
33189;BME280;52601;53.070;10.600;2023-01-04T13:49:42;100467.19;;;11.16;100.00
33189;BME280;52601;53.070;10.600;2023-01-04T13:52:28;100447.88;;;11.02;100.00
33189;BME280;52601;53.070;10.600;2023-01-04T13:55:36;100475.41;;;11.26;100.00
33189;BME280;52601;53.070;10.600;2023-01-04T13:58:27;100480.41;;;11.31;100.00
33189;BME280;52601;53.070;10.600;2023-01-04T14:01:43;100470.91;;;11.28;100.00
33189;BME280;52601;53.070;10.600;2023-01-04T14:05:03;100417.66;;;10.95;100.00
33189;BME280;52601;53.070;10.600;2023-01-04T14:07:49;100456.25;;;11.24;100.00
33189;BME280;52601;53.070;10.600;2023-01-04T14:10:36;100448.25;;;11.27;100.00
33189;BME280;52601;53.070;10.600;2023-01-04T14:13:27;100457.69;;;11.29;100.00
33189;BME280;52601;53.070;10.600;2023-01-04T14:16:14;100419.09;;;11.16;100.00
33189;BME280;52601;53.070;10.600;2023-01-04T14:22:34;100411.22;;;11.32;100.00
33189;BME280;52601;53.070;10.600;2023-01-04T14:33:54;100405.13;;;11.31;100.00
33189;BME280;52601;53.070;10.600;2023-01-04T14:36:41;100439.34;;;11.45;100.00
33189;BME280;52601;53.070;10.600;2023-01-04T14:39:29;100405.53;;;11.23;100.00
33189;BME280;52601;53.070;10.600;2023-01-04T14:42:26;100411.22;;;11.32;100.00
33189;BME280;52601;53.070;10.600;2023-01-04T14:45:12;100426.28;;;11.44;100.00
33189;BME280;52601;53.070;10.600;2023-01-04T14:47:58;100422.53;;;11.48;100.00
33189;BME280;52601;53.070;10.600;2023-01-04T14:50:43;100406.88;;;11.46;100.00
33189;BME280;52601;53.070;10.600;2023-01-04T14:53:29;100402.16;;;11.37;100.00
33189;BME280;52601;53.070;10.600;2023-01-04T14:56:17;100390.56;;;11.41;100.00
33189;BME280;52601;53.070;10.600;2023-01-04T14:59:12;100371.69;;;11.19;100.00
33189;BME280;52601;53.070;10.600;2023-01-04T15:01:58;100384.63;;;11.38;100.00
33189;BME280;52601;53.070;10.600;2023-01-04T15:04:45;100398.91;;;11.48;100.00
33189;BME280;52601;53.070;10.600;2023-01-04T15:07:35;100394.88;;;11.42;100.00
33189;BME280;52601;53.070;10.600;2023-01-04T15:10:26;100394.25;;;11.53;100.00
33189;BME280;52601;53.070;10.600;2023-01-04T15:13:13;100378.00;;;11.46;100.00
33189;BME280;52601;53.070;10.600;2023-01-04T15:15:59;100382.00;;;11.53;100.00
33189;BME280;52601;53.070;10.600;2023-01-04T15:18:45;100383.84;;;11.51;100.00
33189;BME280;52601;53.070;10.600;2023-01-04T15:21:31;100386.75;;;11.47;100.00
33189;BME280;52601;53.070;10.600;2023-01-04T15:24:24;100386.38;;;11.53;100.00
33189;BME280;52601;53.070;10.600;2023-01-04T15:27:10;100370.72;;;11.51;100.00
33189;BME280;52601;53.070;10.600;2023-01-04T15:29:56;100375.13;;;11.51;100.00
33189;BME280;52601;53.070;10.600;2023-01-04T15:32:42;100356.78;;;11.35;100.00
33189;BME280;52601;53.070;10.600;2023-01-04T15:35:27;100364.66;;;11.35;100.00
33189;BME280;52601;53.070;10.600;2023-01-04T15:38:13;100393.94;;;11.43;100.00
33189;BME280;52601;53.070;10.600;2023-01-04T15:41:07;100396.38;;;11.46;100.00
33189;BME280;52601;53.070;10.600;2023-01-04T15:43:53;100388.59;;;11.45;100.00
33189;BME280;52601;53.070;10.600;2023-01-04T15:46:38;100358.06;;;11.28;100.00
33189;BME280;52601;53.070;10.600;2023-01-04T15:49:24;100375.72;;;11.40;100.00
33189;BME280;52601;53.070;10.600;2023-01-04T15:52:10;100379.38;;;11.53;100.00
33189;BME280;52601;53.070;10.600;2023-01-04T15:54:55;100356.44;;;11.41;100.00
33189;BME280;52601;53.070;10.600;2023-01-04T15:57:41;100363.81;;;11.35;100.00
33189;BME280;52601;53.070;10.600;2023-01-04T16:00:29;100381.84;;;11.41;100.00
33189;BME280;52601;53.070;10.600;2023-01-04T16:03:14;100389.09;;;11.36;100.00
33189;BME280;52601;53.070;10.600;2023-01-04T16:06:04;100374.75;;;11.27;100.00
33189;BME280;52601;53.070;10.600;2023-01-04T16:08:49;100364.16;;;11.28;100.00
33189;BME280;52601;53.070;10.600;2023-01-04T16:11:37;100403.69;;;11.41;100.00
33189;BME280;52601;53.070;10.600;2023-01-04T16:14:42;100384.91;;;11.33;100.00
33189;BME280;52601;53.070;10.600;2023-01-04T16:17:28;100408.59;;;11.32;100.00
33189;BME280;52601;53.070;10.600;2023-01-04T16:20:15;100408.25;;;11.38;100.00
33189;BME280;52601;53.070;10.600;2023-01-04T16:23:01;100395.41;;;11.33;100.00
33189;BME280;52601;53.070;10.600;2023-01-04T16:25:49;100384.19;;;11.29;100.00
33189;BME280;52601;53.070;10.600;2023-01-04T16:28:35;100372.72;;;11.16;100.00
33189;BME280;52601;53.070;10.600;2023-01-04T16:31:21;100378.47;;;11.23;100.00
33189;BME280;52601;53.070;10.600;2023-01-04T16:34:10;100368.03;;;11.21;100.00
33189;BME280;52601;53.070;10.600;2023-01-04T16:36:56;100379.22;;;11.25;100.00
33189;BME280;52601;53.070;10.600;2023-01-04T16:39:42;100359.50;;;11.18;100.00
33189;BME280;52601;53.070;10.600;2023-01-04T16:42:47;100372.38;;;11.07;100.00
33189;BME280;52601;53.070;10.600;2023-01-04T16:45:35;100392.84;;;11.16;100.00
33189;BME280;52601;53.070;10.600;2023-01-04T16:48:21;100400.22;;;11.25;100.00
33189;BME280;52601;53.070;10.600;2023-01-04T16:51:06;100366.13;;;11.09;100.00
33189;BME280;52601;53.070;10.600;2023-01-04T16:53:53;100386.66;;;11.33;100.00
33189;BME280;52601;53.070;10.600;2023-01-04T16:56:40;100383.44;;;11.27;100.00
33189;BME280;52601;53.070;10.600;2023-01-04T16:59:25;100342.41;;;11.11;100.00
33189;BME280;52601;53.070;10.600;2023-01-04T17:02:11;100375.97;;;11.36;100.00
33189;BME280;52601;53.070;10.600;2023-01-04T17:04:57;100380.75;;;11.29;100.00
33189;BME280;52601;53.070;10.600;2023-01-04T17:07:45;100372.03;;;11.28;100.00
33189;BME280;52601;53.070;10.600;2023-01-04T17:10:34;100368.78;;;11.23;100.00
33189;BME280;52601;53.070;10.600;2023-01-04T17:13:20;100364.16;;;11.13;100.00
33189;BME280;52601;53.070;10.600;2023-01-04T17:16:06;100344.53;;;11.04;100.00
33189;BME280;52601;53.070;10.600;2023-01-04T17:18:53;100392.84;;;11.32;100.00
33189;BME280;52601;53.070;10.600;2023-01-04T17:21:39;100350.63;;;11.20;100.00
33189;BME280;52601;53.070;10.600;2023-01-04T17:24:25;100355.09;;;11.18;100.00
33189;BME280;52601;53.070;10.600;2023-01-04T17:27:14;100371.84;;;11.32;100.00
33189;BME280;52601;53.070;10.600;2023-01-04T17:30:03;100365.56;;;11.34;100.00
33189;BME280;52601;53.070;10.600;2023-01-04T17:32:49;100376.84;;;11.36;100.00
33189;BME280;52601;53.070;10.600;2023-01-04T17:35:38;100386.31;;;11.39;100.00
33189;BME280;52601;53.070;10.600;2023-01-04T17:38:24;100352.22;;;11.23;100.00
33189;BME280;52601;53.070;10.600;2023-01-04T17:41:18;100388.28;;;11.35;100.00
33189;BME280;52601;53.070;10.600;2023-01-04T17:44:05;100378.13;;;11.29;100.00
33189;BME280;52601;53.070;10.600;2023-01-04T17:46:51;100355.88;;;11.20;100.00
33189;BME280;52601;53.070;10.600;2023-01-04T17:49:37;100347.91;;;11.06;100.00
33189;BME280;52601;53.070;10.600;2023-01-04T17:52:23;100342.22;;;11.14;100.00
33189;BME280;52601;53.070;10.600;2023-01-04T17:55:16;100343.34;;;11.10;100.00
33189;BME280;52601;53.070;10.600;2023-01-04T17:58:02;100339.44;;;11.17;100.00
33189;BME280;52601;53.070;10.600;2023-01-04T18:00:56;100342.91;;;11.17;100.00
33189;BME280;52601;53.070;10.600;2023-01-04T18:03:44;100334.56;;;11.11;100.00
33189;BME280;52601;53.070;10.600;2023-01-04T18:06:34;100357.81;;;11.17;100.00
33189;BME280;52601;53.070;10.600;2023-01-04T18:09:20;100352.38;;;11.20;100.00
33189;BME280;52601;53.070;10.600;2023-01-04T18:12:08;100360.09;;;11.23;100.00
33189;BME280;52601;53.070;10.600;2023-01-04T18:14:54;100334.81;;;11.06;100.00
33189;BME280;52601;53.070;10.600;2023-01-04T18:17:40;100359.84;;;11.12;100.00
33189;BME280;52601;53.070;10.600;2023-01-04T18:20:25;100369.66;;;11.24;100.00
33189;BME280;52601;53.070;10.600;2023-01-04T18:23:11;100355.09;;;11.18;100.00
33189;BME280;52601;53.070;10.600;2023-01-04T18:26:11;100347.00;;;11.07;100.00
33189;BME280;52601;53.070;10.600;2023-01-04T18:28:57;100344.09;;;11.12;100.00
33189;BME280;52601;53.070;10.600;2023-01-04T18:31:42;100367.47;;;11.16;100.00
33189;BME280;52601;53.070;10.600;2023-01-04T18:34:28;100369.84;;;11.21;100.00
33189;BME280;52601;53.070;10.600;2023-01-04T18:37:14;100347.81;;;11.08;100.00
33189;BME280;52601;53.070;10.600;2023-01-04T18:40:01;100364.00;;;11.16;100.00
33189;BME280;52601;53.070;10.600;2023-01-04T18:42:48;100315.09;;;10.84;100.00
33189;BME280;52601;53.070;10.600;2023-01-04T18:45:39;100376.34;;;11.14;100.00
33189;BME280;52601;53.070;10.600;2023-01-04T18:52:21;100302.84;;;10.69;100.00
33189;BME280;52601;53.070;10.600;2023-01-04T18:55:10;100283.19;;;10.60;100.00
33189;BME280;52601;53.070;10.600;2023-01-04T18:58:03;100362.38;;;10.98;100.00
33189;BME280;52601;53.070;10.600;2023-01-04T19:01:05;100288.63;;;10.42;100.00
33189;BME280;52601;53.070;10.600;2023-01-04T19:04:13;100352.56;;;10.86;100.00
33189;BME280;52601;53.070;10.600;2023-01-04T19:07:01;100357.81;;;10.86;100.00
33189;BME280;52601;53.070;10.600;2023-01-04T19:09:47;100358.75;;;10.69;100.00
33189;BME280;52601;53.070;10.600;2023-01-04T19:12:32;100369.91;;;10.73;100.00
33189;BME280;52601;53.070;10.600;2023-01-04T19:15:23;100357.00;;;10.70;100.00
33189;BME280;52601;53.070;10.600;2023-01-04T19:18:10;100352.41;;;10.58;100.00
33189;BME280;52601;53.070;10.600;2023-01-04T19:20:59;100323.63;;;10.40;100.00
33189;BME280;52601;53.070;10.600;2023-01-04T19:23:44;100341.97;;;10.56;100.00
33189;BME280;52601;53.070;10.600;2023-01-04T19:26:32;100302.81;;;10.37;100.00
33189;BME280;52601;53.070;10.600;2023-01-04T19:29:18;100338.34;;;10.59;100.00
33189;BME280;52601;53.070;10.600;2023-01-04T19:32:04;100337.88;;;10.68;100.00
33189;BME280;52601;53.070;10.600;2023-01-04T19:34:50;100315.50;;;10.45;100.00
33189;BME280;52601;53.070;10.600;2023-01-04T19:37:36;100334.63;;;10.63;100.00
33189;BME280;52601;53.070;10.600;2023-01-04T19:40:22;100304.50;;;10.38;100.00
33189;BME280;52601;53.070;10.600;2023-01-04T19:43:08;100324.72;;;10.52;100.00
33189;BME280;52601;53.070;10.600;2023-01-04T19:45:54;100319.00;;;10.61;100.00
33189;BME280;52601;53.070;10.600;2023-01-04T19:48:40;100302.66;;;10.56;100.00
33189;BME280;52601;53.070;10.600;2023-01-04T19:51:27;100291.56;;;10.35;100.00
33189;BME280;52601;53.070;10.600;2023-01-04T19:54:14;100289.44;;;10.26;100.00
33189;BME280;52601;53.070;10.600;2023-01-04T19:57:09;100313.66;;;10.47;100.00
33189;BME280;52601;53.070;10.600;2023-01-04T19:59:55;100301.78;;;10.40;100.00
33189;BME280;52601;53.070;10.600;2023-01-04T20:02:41;100324.25;;;10.61;100.00
33189;BME280;52601;53.070;10.600;2023-01-04T20:05:27;100309.41;;;10.60;100.00
33189;BME280;52601;53.070;10.600;2023-01-04T20:08:13;100314.09;;;10.71;100.00
33189;BME280;52601;53.070;10.600;2023-01-04T20:11:01;100316.88;;;10.83;100.00
33189;BME280;52601;53.070;10.600;2023-01-04T20:13:48;100304.94;;;10.78;100.00
33189;BME280;52601;53.070;10.600;2023-01-04T20:16:34;100313.06;;;10.89;100.00
33189;BME280;52601;53.070;10.600;2023-01-04T20:19:21;100319.41;;;10.85;100.00
33189;BME280;52601;53.070;10.600;2023-01-04T20:34:07;100265.59;;;10.31;100.00